sensor_id;sensor_type;location;lat;lon;timestamp;pressure;altitude;pressure_sealevel;temperature;humidity
76137;BME280;68622;53.128;17.966;2023-04-29T00:00:08;100993.50;;;9.87;48.40
76137;BME280;68622;53.128;17.966;2023-04-29T00:02:58;100989.42;;;9.84;48.66
76137;BME280;68622;53.128;17.966;2023-04-29T00:05:24;100986.50;;;9.81;48.33
76137;BME280;68622;53.128;17.966;2023-04-29T00:07:50;100983.25;;;9.79;48.34
76137;BME280;68622;53.128;17.966;2023-04-29T00:10:16;100979.98;;;9.77;48.38
76137;BME280;68622;53.128;17.966;2023-04-29T00:12:42;100983.08;;;9.75;48.47
76137;BME280;68622;53.128;17.966;2023-04-29T00:15:09;100980.67;;;9.72;48.58
76137;BME280;68622;53.128;17.966;2023-04-29T00:17:35;100980.99;;;9.71;48.24
76137;BME280;68622;53.128;17.966;2023-04-29T00:20:02;100983.61;;;9.69;48.46
76137;BME280;68622;53.128;17.966;2023-04-29T00:22:28;100982.23;;;9.66;48.73
76137;BME280;68622;53.128;17.966;2023-04-29T00:24:54;100979.92;;;9.62;49.31
76137;BME280;68622;53.128;17.966;2023-04-29T00:27:20;100980.52;;;9.60;49.19
76137;BME280;68622;53.128;17.966;2023-04-29T00:29:46;100977.80;;;9.56;48.70
76137;BME280;68622;53.128;17.966;2023-04-29T00:32:12;100973.17;;;9.54;48.93
76137;BME280;68622;53.128;17.966;2023-04-29T00:34:38;100969.67;;;9.52;49.42
76137;BME280;68622;53.128;17.966;2023-04-29T00:37:04;100967.19;;;9.51;49.68
76137;BME280;68622;53.128;17.966;2023-04-29T00:39:30;100964.09;;;9.50;49.40
76137;BME280;68622;53.128;17.966;2023-04-29T00:41:56;100965.23;;;9.51;49.37
76137;BME280;68622;53.128;17.966;2023-04-29T00:44:22;100962.84;;;9.53;49.57
76137;BME280;68622;53.128;17.966;2023-04-29T00:46:48;100962.04;;;9.55;49.77
76137;BME280;68622;53.128;17.966;2023-04-29T00:49:14;100964.44;;;9.57;49.93
76137;BME280;68622;53.128;17.966;2023-04-29T00:51:45;100961.21;;;9.59;49.87
76137;BME280;68622;53.128;17.966;2023-04-29T00:54:11;100959.58;;;9.59;50.14
76137;BME280;68622;53.128;17.966;2023-04-29T00:56:39;100961.00;;;9.61;49.81
76137;BME280;68622;53.128;17.966;2023-04-29T00:59:08;100959.52;;;9.75;49.60
76137;BME280;68622;53.128;17.966;2023-04-29T01:01:35;100956.98;;;9.80;49.66
76137;BME280;68622;53.128;17.966;2023-04-29T01:04:02;100954.02;;;9.83;49.49
76137;BME280;68622;53.128;17.966;2023-04-29T01:12:44;100953.06;;;9.88;49.34
76137;BME280;68622;53.128;17.966;2023-04-29T01:20:42;100950.11;;;9.93;49.22
76137;BME280;68622;53.128;17.966;2023-04-29T01:23:10;100950.60;;;9.93;49.22
76137;BME280;68622;53.128;17.966;2023-04-29T01:25:38;100948.88;;;9.93;49.14
76137;BME280;68622;53.128;17.966;2023-04-29T01:28:49;100949.45;;;9.92;49.25
76137;BME280;68622;53.128;17.966;2023-04-29T01:34:13;100942.54;;;9.87;49.40
76137;BME280;68622;53.128;17.966;2023-04-29T01:37:13;100939.69;;;9.86;49.59
76137;BME280;68622;53.128;17.966;2023-04-29T01:40:21;100935.30;;;9.83;49.55
76137;BME280;68622;53.128;17.966;2023-04-29T01:43:05;100937.45;;;9.78;49.83
76137;BME280;68622;53.128;17.966;2023-04-29T01:45:37;100937.02;;;9.72;49.80
76137;BME280;68622;53.128;17.966;2023-04-29T01:48:08;100937.98;;;9.67;49.59
76137;BME280;68622;53.128;17.966;2023-04-29T01:50:35;100939.37;;;9.63;50.06
76137;BME280;68622;53.128;17.966;2023-04-29T01:53:10;100938.45;;;9.57;49.78
76137;BME280;68622;53.128;17.966;2023-04-29T01:55:36;100936.91;;;9.53;49.97
76137;BME280;68622;53.128;17.966;2023-04-29T01:58:15;100937.04;;;9.49;50.38
76137;BME280;68622;53.128;17.966;2023-04-29T02:01:04;100936.97;;;9.45;50.98
76137;BME280;68622;53.128;17.966;2023-04-29T02:03:32;100933.04;;;9.42;50.44
76137;BME280;68622;53.128;17.966;2023-04-29T02:06:00;100934.06;;;9.40;50.70
76137;BME280;68622;53.128;17.966;2023-04-29T02:08:25;100931.77;;;9.39;50.37
76137;BME280;68622;53.128;17.966;2023-04-29T02:10:56;100928.55;;;9.38;50.49
76137;BME280;68622;53.128;17.966;2023-04-29T02:13:30;100926.60;;;9.36;50.57
76137;BME280;68622;53.128;17.966;2023-04-29T02:15:56;100918.95;;;9.35;50.88
76137;BME280;68622;53.128;17.966;2023-04-29T02:18:22;100923.27;;;9.35;51.09
76137;BME280;68622;53.128;17.966;2023-04-29T02:20:48;100927.16;;;9.34;50.77
76137;BME280;68622;53.128;17.966;2023-04-29T02:23:15;100924.61;;;9.33;51.18
76137;BME280;68622;53.128;17.966;2023-04-29T02:25:41;100928.24;;;9.31;51.73
76137;BME280;68622;53.128;17.966;2023-04-29T02:28:07;100926.23;;;9.30;51.30
76137;BME280;68622;53.128;17.966;2023-04-29T02:30:34;100921.91;;;9.30;51.05
76137;BME280;68622;53.128;17.966;2023-04-29T02:33:00;100918.80;;;9.30;51.48
76137;BME280;68622;53.128;17.966;2023-04-29T02:35:26;100915.52;;;9.30;51.67
76137;BME280;68622;53.128;17.966;2023-04-29T02:37:53;100916.18;;;9.30;50.93
76137;BME280;68622;53.128;17.966;2023-04-29T02:40:20;100915.55;;;9.30;51.02
76137;BME280;68622;53.128;17.966;2023-04-29T02:42:46;100917.41;;;9.30;51.56
76137;BME280;68622;53.128;17.966;2023-04-29T02:45:12;100914.49;;;9.30;50.90
76137;BME280;68622;53.128;17.966;2023-04-29T02:47:38;100913.55;;;9.29;51.43
76137;BME280;68622;53.128;17.966;2023-04-29T02:50:04;100909.65;;;9.28;51.30
76137;BME280;68622;53.128;17.966;2023-04-29T02:52:31;100908.70;;;9.27;51.23
76137;BME280;68622;53.128;17.966;2023-04-29T02:54:57;100905.60;;;9.24;51.33
76137;BME280;68622;53.128;17.966;2023-04-29T02:57:23;100904.90;;;9.24;51.48
76137;BME280;68622;53.128;17.966;2023-04-29T02:59:49;100905.70;;;9.23;51.46
76137;BME280;68622;53.128;17.966;2023-04-29T03:02:16;100903.11;;;9.21;52.16
76137;BME280;68622;53.128;17.966;2023-04-29T03:04:42;100906.41;;;9.16;52.14
76137;BME280;68622;53.128;17.966;2023-04-29T03:07:09;100906.73;;;9.17;51.84
76137;BME280;68622;53.128;17.966;2023-04-29T03:09:35;100908.10;;;9.14;52.07
76137;BME280;68622;53.128;17.966;2023-04-29T03:12:01;100903.54;;;9.13;52.18
76137;BME280;68622;53.128;17.966;2023-04-29T03:14:29;100904.52;;;9.10;52.40
76137;BME280;68622;53.128;17.966;2023-04-29T03:16:55;100904.03;;;9.07;52.05
76137;BME280;68622;53.128;17.966;2023-04-29T03:19:21;100900.75;;;9.05;51.80
76137;BME280;68622;53.128;17.966;2023-04-29T03:21:49;100902.45;;;9.01;52.56
76137;BME280;68622;53.128;17.966;2023-04-29T03:24:15;100905.79;;;8.98;52.74
76137;BME280;68622;53.128;17.966;2023-04-29T03:26:41;100912.55;;;8.93;53.25
76137;BME280;68622;53.128;17.966;2023-04-29T03:29:10;100909.30;;;8.88;52.95
76137;BME280;68622;53.128;17.966;2023-04-29T03:31:36;100910.81;;;8.85;53.11
76137;BME280;68622;53.128;17.966;2023-04-29T03:34:02;100904.88;;;8.81;53.23
76137;BME280;68622;53.128;17.966;2023-04-29T03:36:29;100910.58;;;8.79;53.71
76137;BME280;68622;53.128;17.966;2023-04-29T03:39:01;100910.28;;;8.78;53.76
76137;BME280;68622;53.128;17.966;2023-04-29T03:41:28;100911.02;;;8.78;53.72
76137;BME280;68622;53.128;17.966;2023-04-29T03:43:54;100906.82;;;8.79;53.84
76137;BME280;68622;53.128;17.966;2023-04-29T03:46:26;100906.65;;;8.80;53.63
76137;BME280;68622;53.128;17.966;2023-04-29T03:48:53;100905.08;;;8.83;53.44
76137;BME280;68622;53.128;17.966;2023-04-29T03:51:24;100900.02;;;8.86;53.65
76137;BME280;68622;53.128;17.966;2023-04-29T03:53:53;100902.10;;;8.90;53.40
76137;BME280;68622;53.128;17.966;2023-04-29T03:56:21;100900.23;;;8.94;53.48
76137;BME280;68622;53.128;17.966;2023-04-29T03:58:48;100896.33;;;8.97;53.41
76137;BME280;68622;53.128;17.966;2023-04-29T04:01:14;100898.42;;;9.02;53.06
76137;BME280;68622;53.128;17.966;2023-04-29T04:03:42;100898.82;;;9.05;52.85
76137;BME280;68622;53.128;17.966;2023-04-29T04:06:08;100898.52;;;9.09;52.86
76137;BME280;68622;53.128;17.966;2023-04-29T04:08:34;100896.94;;;9.13;53.06
76137;BME280;68622;53.128;17.966;2023-04-29T04:11:07;100898.16;;;9.18;53.04
76137;BME280;68622;53.128;17.966;2023-04-29T04:13:36;100900.80;;;9.22;53.08
76137;BME280;68622;53.128;17.966;2023-04-29T04:16:02;100901.08;;;9.25;52.66
76137;BME280;68622;53.128;17.966;2023-04-29T04:18:29;100904.38;;;9.29;52.76
76137;BME280;68622;53.128;17.966;2023-04-29T04:20:55;100901.28;;;9.30;52.87
76137;BME280;68622;53.128;17.966;2023-04-29T04:23:23;100901.77;;;9.33;52.96
76137;BME280;68622;53.128;17.966;2023-04-29T04:25:49;100898.20;;;9.37;53.17
76137;BME280;68622;53.128;17.966;2023-04-29T04:28:32;100897.04;;;9.40;53.04
76137;BME280;68622;53.128;17.966;2023-04-29T04:31:04;100896.95;;;9.44;53.34
76137;BME280;68622;53.128;17.966;2023-04-29T04:33:30;100900.24;;;9.47;53.23
76137;BME280;68622;53.128;17.966;2023-04-29T04:35:57;100896.08;;;9.52;53.26
76137;BME280;68622;53.128;17.966;2023-04-29T04:38:24;100899.15;;;9.57;53.64
76137;BME280;68622;53.128;17.966;2023-04-29T04:40:51;100897.31;;;9.63;53.17
76137;BME280;68622;53.128;17.966;2023-04-29T04:43:31;100896.90;;;9.70;53.26
76137;BME280;68622;53.128;17.966;2023-04-29T04:45:57;100894.77;;;9.76;53.70
76137;BME280;68622;53.128;17.966;2023-04-29T04:48:23;100895.79;;;9.85;53.15
76137;BME280;68622;53.128;17.966;2023-04-29T04:50:50;100897.84;;;9.96;53.06
76137;BME280;68622;53.128;17.966;2023-04-29T04:53:16;100895.55;;;10.07;53.17
76137;BME280;68622;53.128;17.966;2023-04-29T04:55:46;100892.65;;;10.19;52.34
76137;BME280;68622;53.128;17.966;2023-04-29T04:58:14;100896.45;;;10.32;52.39
76137;BME280;68622;53.128;17.966;2023-04-29T05:00:44;100897.25;;;10.44;52.01
76137;BME280;68622;53.128;17.966;2023-04-29T05:03:11;100897.20;;;10.57;51.90
76137;BME280;68622;53.128;17.966;2023-04-29T05:05:37;100897.31;;;10.68;51.90
76137;BME280;68622;53.128;17.966;2023-04-29T05:08:03;100897.20;;;10.76;51.57
76137;BME280;68622;53.128;17.966;2023-04-29T05:10:35;100893.83;;;10.80;51.34
76137;BME280;68622;53.128;17.966;2023-04-29T05:13:02;100893.48;;;10.82;51.30
76137;BME280;68622;53.128;17.966;2023-04-29T05:15:28;100893.48;;;10.86;51.33
76137;BME280;68622;53.128;17.966;2023-04-29T05:17:56;100896.05;;;10.91;51.24
76137;BME280;68622;53.128;17.966;2023-04-29T05:20:25;100898.15;;;10.92;51.31
76137;BME280;68622;53.128;17.966;2023-04-29T05:22:51;100900.06;;;10.92;51.35
76137;BME280;68622;53.128;17.966;2023-04-29T05:25:17;100904.74;;;10.90;51.28
76137;BME280;68622;53.128;17.966;2023-04-29T05:27:43;100902.96;;;10.87;51.34
76137;BME280;68622;53.128;17.966;2023-04-29T05:30:12;100905.70;;;10.81;51.81
76137;BME280;68622;53.128;17.966;2023-04-29T05:32:38;100907.50;;;10.81;52.14
76137;BME280;68622;53.128;17.966;2023-04-29T05:35:06;100910.68;;;10.82;52.80
76137;BME280;68622;53.128;17.966;2023-04-29T05:37:32;100914.08;;;10.85;53.29
76137;BME280;68622;53.128;17.966;2023-04-29T05:40:07;100907.24;;;10.92;53.83
76137;BME280;68622;53.128;17.966;2023-04-29T05:42:34;100912.48;;;11.01;53.55
76137;BME280;68622;53.128;17.966;2023-04-29T05:45:00;100913.71;;;11.11;53.16
76137;BME280;68622;53.128;17.966;2023-04-29T05:47:26;100913.21;;;11.25;52.54
76137;BME280;68622;53.128;17.966;2023-04-29T05:49:52;100907.42;;;11.39;52.26
76137;BME280;68622;53.128;17.966;2023-04-29T05:52:18;100911.08;;;11.47;52.26
76137;BME280;68622;53.128;17.966;2023-04-29T05:54:46;100903.77;;;11.58;51.47
76137;BME280;68622;53.128;17.966;2023-04-29T05:57:12;100903.70;;;11.67;51.36
76137;BME280;68622;53.128;17.966;2023-04-29T05:59:39;100903.30;;;11.77;51.09
76137;BME280;68622;53.128;17.966;2023-04-29T06:02:05;100909.23;;;11.89;50.66
76137;BME280;68622;53.128;17.966;2023-04-29T06:04:31;100907.02;;;12.01;50.57
76137;BME280;68622;53.128;17.966;2023-04-29T06:07:16;100903.52;;;12.19;50.03
76137;BME280;68622;53.128;17.966;2023-04-29T06:09:55;100900.60;;;12.35;49.72
76137;BME280;68622;53.128;17.966;2023-04-29T06:12:21;100904.38;;;12.54;49.89
76137;BME280;68622;53.128;17.966;2023-04-29T06:14:47;100900.42;;;12.76;49.16
76137;BME280;68622;53.128;17.966;2023-04-29T06:17:13;100900.64;;;12.94;49.33
76137;BME280;68622;53.128;17.966;2023-04-29T06:19:40;100896.30;;;13.08;48.86
76137;BME280;68622;53.128;17.966;2023-04-29T06:22:08;100894.62;;;13.20;49.00
76137;BME280;68622;53.128;17.966;2023-04-29T06:24:34;100895.84;;;13.27;48.39
76137;BME280;68622;53.128;17.966;2023-04-29T06:27:01;100897.20;;;13.33;48.31
76137;BME280;68622;53.128;17.966;2023-04-29T06:29:29;100896.70;;;13.42;48.31
76137;BME280;68622;53.128;17.966;2023-04-29T06:31:55;100895.09;;;13.51;47.86
76137;BME280;68622;53.128;17.966;2023-04-29T06:34:21;100894.20;;;13.64;47.96
76137;BME280;68622;53.128;17.966;2023-04-29T06:37:08;100895.56;;;13.57;47.47
76137;BME280;68622;53.128;17.966;2023-04-29T06:40:00;100895.35;;;13.66;47.53
76137;BME280;68622;53.128;17.966;2023-04-29T06:42:45;100898.09;;;13.72;48.10
76137;BME280;68622;53.128;17.966;2023-04-29T06:45:30;100897.23;;;13.84;47.84
76137;BME280;68622;53.128;17.966;2023-04-29T06:48:07;100898.79;;;13.95;47.79
76137;BME280;68622;53.128;17.966;2023-04-29T06:50:52;100897.36;;;14.00;47.74
76137;BME280;68622;53.128;17.966;2023-04-29T06:53:18;100901.39;;;14.07;47.61
76137;BME280;68622;53.128;17.966;2023-04-29T06:55:46;100898.50;;;14.14;47.39
76137;BME280;68622;53.128;17.966;2023-04-29T06:58:12;100897.91;;;14.23;47.87
76137;BME280;68622;53.128;17.966;2023-04-29T07:00:39;100891.96;;;14.31;47.60
76137;BME280;68622;53.128;17.966;2023-04-29T07:03:05;100896.01;;;14.36;47.30
76137;BME280;68622;53.128;17.966;2023-04-29T07:05:31;100899.05;;;14.40;47.04
76137;BME280;68622;53.128;17.966;2023-04-29T07:07:57;100899.29;;;14.46;46.96
76137;BME280;68622;53.128;17.966;2023-04-29T07:10:24;100897.23;;;14.50;46.98
76137;BME280;68622;53.128;17.966;2023-04-29T07:12:53;100897.63;;;14.53;47.27
76137;BME280;68622;53.128;17.966;2023-04-29T07:15:20;100899.96;;;14.59;47.10
76137;BME280;68622;53.128;17.966;2023-04-29T07:17:47;100895.69;;;14.60;46.71
76137;BME280;68622;53.128;17.966;2023-04-29T07:20:13;100892.62;;;14.61;46.84
76137;BME280;68622;53.128;17.966;2023-04-29T07:22:39;100895.10;;;14.67;47.40
76137;BME280;68622;53.128;17.966;2023-04-29T07:25:05;100895.32;;;14.75;46.75
76137;BME280;68622;53.128;17.966;2023-04-29T07:27:33;100897.03;;;14.83;46.80
76137;BME280;68622;53.128;17.966;2023-04-29T07:30:00;100894.34;;;14.89;47.07
76137;BME280;68622;53.128;17.966;2023-04-29T07:32:26;100899.61;;;14.91;47.26
76137;BME280;68622;53.128;17.966;2023-04-29T07:34:53;100901.84;;;14.90;46.87
76137;BME280;68622;53.128;17.966;2023-04-29T07:37:20;100903.02;;;14.89;47.04
76137;BME280;68622;53.128;17.966;2023-04-29T07:39:47;100899.26;;;14.88;46.97
76137;BME280;68622;53.128;17.966;2023-04-29T07:42:13;100904.66;;;14.76;47.48
76137;BME280;68622;53.128;17.966;2023-04-29T07:44:40;100904.20;;;14.55;48.48
76137;BME280;68622;53.128;17.966;2023-04-29T07:47:06;100906.46;;;14.49;48.47
76137;BME280;68622;53.128;17.966;2023-04-29T07:49:32;100903.75;;;14.35;49.72
76137;BME280;68622;53.128;17.966;2023-04-29T07:51:58;100902.94;;;14.26;49.90
76137;BME280;68622;53.128;17.966;2023-04-29T07:54:24;100905.29;;;14.27;51.00
76137;BME280;68622;53.128;17.966;2023-04-29T07:56:50;100907.23;;;14.32;49.70
76137;BME280;68622;53.128;17.966;2023-04-29T07:59:18;100910.52;;;14.31;50.90
76137;BME280;68622;53.128;17.966;2023-04-29T08:01:44;100913.97;;;14.40;50.46
76137;BME280;68622;53.128;17.966;2023-04-29T08:04:12;100918.95;;;14.30;50.85
76137;BME280;68622;53.128;17.966;2023-04-29T08:06:58;100917.61;;;14.30;51.79
76137;BME280;68622;53.128;17.966;2023-04-29T08:09:24;100919.70;;;14.31;51.83
76137;BME280;68622;53.128;17.966;2023-04-29T08:11:50;100920.13;;;14.30;51.44
76137;BME280;68622;53.128;17.966;2023-04-29T08:14:16;100922.50;;;14.31;51.55
76137;BME280;68622;53.128;17.966;2023-04-29T08:16:42;100921.77;;;14.31;52.00
76137;BME280;68622;53.128;17.966;2023-04-29T08:19:08;100913.34;;;14.32;51.13
76137;BME280;68622;53.128;17.966;2023-04-29T08:21:34;100916.22;;;14.33;52.30
76137;BME280;68622;53.128;17.966;2023-04-29T08:24:00;100918.65;;;14.35;51.76
76137;BME280;68622;53.128;17.966;2023-04-29T08:26:26;100919.33;;;14.39;51.55
76137;BME280;68622;53.128;17.966;2023-04-29T08:28:52;100919.21;;;14.41;51.16
76137;BME280;68622;53.128;17.966;2023-04-29T08:31:19;100920.52;;;14.41;52.02
76137;BME280;68622;53.128;17.966;2023-04-29T08:33:47;100923.64;;;14.32;51.74
76137;BME280;68622;53.128;17.966;2023-04-29T08:36:13;100924.59;;;14.33;51.15
76137;BME280;68622;53.128;17.966;2023-04-29T08:38:39;100927.39;;;14.30;51.04
76137;BME280;68622;53.128;17.966;2023-04-29T08:41:08;100927.92;;;14.03;52.75
76137;BME280;68622;53.128;17.966;2023-04-29T08:43:35;100925.66;;;14.02;52.97
76137;BME280;68622;53.128;17.966;2023-04-29T08:46:08;100930.23;;;14.16;51.91
76137;BME280;68622;53.128;17.966;2023-04-29T08:48:35;100931.04;;;14.26;51.39
76137;BME280;68622;53.128;17.966;2023-04-29T08:51:01;100927.42;;;14.38;51.45
76137;BME280;68622;53.128;17.966;2023-04-29T08:53:27;100930.27;;;14.50;51.77
76137;BME280;68622;53.128;17.966;2023-04-29T08:55:54;100933.04;;;14.39;53.22
76137;BME280;68622;53.128;17.966;2023-04-29T08:58:24;100933.67;;;14.47;52.49
76137;BME280;68622;53.128;17.966;2023-04-29T09:00:50;100933.91;;;14.46;52.12
76137;BME280;68622;53.128;17.966;2023-04-29T09:03:30;100935.86;;;14.51;52.05
76137;BME280;68622;53.128;17.966;2023-04-29T09:06:00;100936.44;;;14.54;51.75
76137;BME280;68622;53.128;17.966;2023-04-29T09:08:26;100935.48;;;14.50;52.62
76137;BME280;68622;53.128;17.966;2023-04-29T09:10:53;100936.13;;;14.54;52.10
76137;BME280;68622;53.128;17.966;2023-04-29T09:15:49;100927.89;;;14.47;51.68
76137;BME280;68622;53.128;17.966;2023-04-29T09:23:43;100916.83;;;14.39;52.22
76137;BME280;68622;53.128;17.966;2023-04-29T09:26:10;100914.23;;;14.41;52.55
76137;BME280;68622;53.128;17.966;2023-04-29T09:28:36;100912.61;;;14.54;52.19
76137;BME280;68622;53.128;17.966;2023-04-29T09:31:04;100916.49;;;14.65;51.65
76137;BME280;68622;53.128;17.966;2023-04-29T09:33:55;100918.31;;;14.74;51.40
76137;BME280;68622;53.128;17.966;2023-04-29T09:36:45;100921.09;;;14.66;52.04
76137;BME280;68622;53.128;17.966;2023-04-29T09:39:13;100920.71;;;14.78;51.53
76137;BME280;68622;53.128;17.966;2023-04-29T09:44:22;100928.10;;;14.62;52.28
76137;BME280;68622;53.128;17.966;2023-04-29T09:46:59;100931.83;;;14.72;51.96
76137;BME280;68622;53.128;17.966;2023-04-29T09:49:35;100932.85;;;14.74;51.87
76137;BME280;68622;53.128;17.966;2023-04-29T09:52:13;100928.47;;;14.86;52.00
76137;BME280;68622;53.128;17.966;2023-04-29T09:54:42;100926.88;;;14.88;51.88
76137;BME280;68622;53.128;17.966;2023-04-29T09:57:10;100924.46;;;14.88;51.70
76137;BME280;68622;53.128;17.966;2023-04-29T09:59:39;100926.95;;;14.97;51.30
76137;BME280;68622;53.128;17.966;2023-04-29T10:02:25;100924.30;;;14.96;51.60
76137;BME280;68622;53.128;17.966;2023-04-29T10:04:56;100919.79;;;15.00;51.63
76137;BME280;68622;53.128;17.966;2023-04-29T10:07:24;100916.70;;;14.98;51.93
76137;BME280;68622;53.128;17.966;2023-04-29T10:09:53;100913.70;;;14.93;52.24
76137;BME280;68622;53.128;17.966;2023-04-29T10:12:19;100911.67;;;15.04;51.99
76137;BME280;68622;53.128;17.966;2023-04-29T10:17:35;100905.54;;;15.50;51.15
76137;BME280;68622;53.128;17.966;2023-04-29T10:20:05;100904.56;;;15.59;50.95
76137;BME280;68622;53.128;17.966;2023-04-29T10:22:40;100902.88;;;15.87;50.41
76137;BME280;68622;53.128;17.966;2023-04-29T10:25:17;100897.09;;;16.10;50.25
76137;BME280;68622;53.128;17.966;2023-04-29T10:27:44;100894.31;;;16.34;49.94
76137;BME280;68622;53.128;17.966;2023-04-29T10:30:14;100892.20;;;16.64;49.05
76137;BME280;68622;53.128;17.966;2023-04-29T10:32:42;100891.98;;;16.84;48.53
76137;BME280;68622;53.128;17.966;2023-04-29T10:35:10;100890.46;;;16.77;48.18
76137;BME280;68622;53.128;17.966;2023-04-29T10:37:37;100888.12;;;16.99;47.87
76137;BME280;68622;53.128;17.966;2023-04-29T10:40:35;100885.70;;;17.02;47.47
76137;BME280;68622;53.128;17.966;2023-04-29T10:42:57;100885.27;;;17.04;47.46
76137;BME280;68622;53.128;17.966;2023-04-29T10:45:31;100884.79;;;17.25;47.42
76137;BME280;68622;53.128;17.966;2023-04-29T10:48:09;100883.87;;;17.39;46.82
76137;BME280;68622;53.128;17.966;2023-04-29T10:53:02;100888.64;;;17.43;46.36
76137;BME280;68622;53.128;17.966;2023-04-29T10:55:28;100885.42;;;17.44;46.58
76137;BME280;68622;53.128;17.966;2023-04-29T10:57:55;100885.98;;;17.24;46.34
76137;BME280;68622;53.128;17.966;2023-04-29T11:00:25;100889.47;;;17.27;46.78
76137;BME280;68622;53.128;17.966;2023-04-29T11:02:55;100889.58;;;17.24;46.79
76137;BME280;68622;53.128;17.966;2023-04-29T11:05:35;100889.06;;;17.16;46.99
76137;BME280;68622;53.128;17.966;2023-04-29T11:08:22;100889.09;;;17.07;47.21
76137;BME280;68622;53.128;17.966;2023-04-29T11:10:52;100890.55;;;17.01;47.52
76137;BME280;68622;53.128;17.966;2023-04-29T11:13:26;100892.96;;;16.96;47.65
76137;BME280;68622;53.128;17.966;2023-04-29T11:16:03;100890.20;;;16.91;47.91
76137;BME280;68622;53.128;17.966;2023-04-29T11:18:30;100890.14;;;16.90;48.09
76137;BME280;68622;53.128;17.966;2023-04-29T11:23:35;100888.55;;;16.51;49.18
76137;BME280;68622;53.128;17.966;2023-04-29T11:26:02;100883.05;;;16.60;48.77
76137;BME280;68622;53.128;17.966;2023-04-29T11:28:29;100879.89;;;16.74;48.85
76137;BME280;68622;53.128;17.966;2023-04-29T11:30:57;100882.81;;;16.92;47.82
76137;BME280;68622;53.128;17.966;2023-04-29T11:33:24;100876.75;;;16.99;47.81
76137;BME280;68622;53.128;17.966;2023-04-29T11:35:55;100880.86;;;17.17;46.78
76137;BME280;68622;53.128;17.966;2023-04-29T11:38:30;100878.71;;;17.43;46.42
76137;BME280;68622;53.128;17.966;2023-04-29T11:40:58;100874.05;;;17.61;45.76
76137;BME280;68622;53.128;17.966;2023-04-29T11:43:24;100876.03;;;17.86;45.43
76137;BME280;68622;53.128;17.966;2023-04-29T11:45:51;100877.67;;;17.93;45.20
76137;BME280;68622;53.128;17.966;2023-04-29T11:48:21;100878.73;;;17.64;44.99
76137;BME280;68622;53.128;17.966;2023-04-29T11:50:52;100880.02;;;17.50;44.97
76137;BME280;68622;53.128;17.966;2023-04-29T11:53:20;100880.80;;;17.61;44.96
76137;BME280;68622;53.128;17.966;2023-04-29T11:55:47;100884.98;;;17.48;45.28
76137;BME280;68622;53.128;17.966;2023-04-29T11:58:14;100881.58;;;17.73;45.14
76137;BME280;68622;53.128;17.966;2023-04-29T12:00:43;100877.52;;;17.85;44.48
76137;BME280;68622;53.128;17.966;2023-04-29T12:03:17;100876.98;;;17.97;44.52
76137;BME280;68622;53.128;17.966;2023-04-29T12:05:54;100879.77;;;17.97;44.50
76137;BME280;68622;53.128;17.966;2023-04-29T12:08:23;100872.00;;;18.14;44.56
76137;BME280;68622;53.128;17.966;2023-04-29T12:10:54;100875.23;;;17.78;44.34
76137;BME280;68622;53.128;17.966;2023-04-29T12:13:23;100871.47;;;17.49;44.82
76137;BME280;68622;53.128;17.966;2023-04-29T12:15:51;100871.39;;;17.65;44.85
76137;BME280;68622;53.128;17.966;2023-04-29T12:18:18;100871.61;;;17.53;45.08
76137;BME280;68622;53.128;17.966;2023-04-29T12:20:45;100871.21;;;17.33;45.58
76137;BME280;68622;53.128;17.966;2023-04-29T12:23:14;100871.10;;;17.21;45.74
76137;BME280;68622;53.128;17.966;2023-04-29T12:25:40;100869.79;;;17.11;46.27
76137;BME280;68622;53.128;17.966;2023-04-29T12:28:14;100872.04;;;17.23;45.83
76137;BME280;68622;53.128;17.966;2023-04-29T12:30:43;100867.16;;;17.12;46.40
76137;BME280;68622;53.128;17.966;2023-04-29T12:33:09;100870.52;;;17.04;46.16
76137;BME280;68622;53.128;17.966;2023-04-29T12:35:35;100864.27;;;17.16;46.27
76137;BME280;68622;53.128;17.966;2023-04-29T12:38:01;100862.27;;;17.33;46.12
76137;BME280;68622;53.128;17.966;2023-04-29T12:40:27;100862.60;;;17.47;45.88
76137;BME280;68622;53.128;17.966;2023-04-29T12:42:53;100860.56;;;17.39;45.64
76137;BME280;68622;53.128;17.966;2023-04-29T12:45:30;100860.23;;;17.51;45.71
76137;BME280;68622;53.128;17.966;2023-04-29T12:47:57;100856.80;;;17.52;45.68
76137;BME280;68622;53.128;17.966;2023-04-29T12:50:31;100854.95;;;17.54;45.89
76137;BME280;68622;53.128;17.966;2023-04-29T12:53:04;100854.69;;;17.76;45.38
76137;BME280;68622;53.128;17.966;2023-04-29T12:55:36;100846.15;;;17.83;45.11
76137;BME280;68622;53.128;17.966;2023-04-29T12:58:03;100846.19;;;17.89;44.89
76137;BME280;68622;53.128;17.966;2023-04-29T13:00:30;100839.65;;;17.91;45.06
76137;BME280;68622;53.128;17.966;2023-04-29T13:02:56;100840.77;;;18.25;44.71
76137;BME280;68622;53.128;17.966;2023-04-29T13:05:22;100835.25;;;18.60;44.48
76137;BME280;68622;53.128;17.966;2023-04-29T13:07:49;100836.89;;;18.78;44.09
76137;BME280;68622;53.128;17.966;2023-04-29T13:10:15;100833.34;;;19.10;43.15
76137;BME280;68622;53.128;17.966;2023-04-29T13:12:41;100832.05;;;18.95;42.21
76137;BME280;68622;53.128;17.966;2023-04-29T13:15:07;100829.09;;;19.20;42.58
76137;BME280;68622;53.128;17.966;2023-04-29T13:17:35;100823.94;;;19.34;42.25
76137;BME280;68622;53.128;17.966;2023-04-29T13:20:06;100829.48;;;19.34;42.09
76137;BME280;68622;53.128;17.966;2023-04-29T13:22:32;100826.28;;;19.36;41.99
76137;BME280;68622;53.128;17.966;2023-04-29T13:24:58;100831.23;;;19.23;41.70